METAR Data
IDs: Format: Raw Decoded Include TAF

Data at: 1533 UTC 21 Sep 2018

KALS 211452Z AUTO 29008KT 10SM CLR 11/05 A3042 RMK AO2 SLP234 T01110050 51021
KALS 211352Z AUTO 33003KT 10SM CLR 07/03 A3041 RMK AO2 SLP238 T00720033
KALS 211252Z AUTO 06006KT 10SM CLR 04/03 A3038 RMK AO2 SLP226 T00440028
KALS 211152Z AUTO 15004KT 10SM CLR 07/06 A3034 RMK AO2 SLP198 70004 T00720056 10106 20028 51014
KALS 211052Z AUTO VRB03KT 10SM CLR 03/03 A3034 RMK AO2 SLP208 T00330028
KALS 210952Z AUTO 17003KT 10SM CLR 04/03 A3031 RMK AO2 SLP194 T00440033
KALS 210852Z AUTO 31006KT 10SM CLR 07/04 A3029 RMK AO2 SLP185 T00670044 53010
KALS 210752Z AUTO 20003KT 10SM CLR 06/03 A3028 RMK AO2 SLP187 T00560028
KALS 210652Z AUTO 33007KT 10SM CLR 11/02 A3025 RMK AO2 SLP175 T01060022 402170083
KALS 210552Z AUTO 36006KT 10SM CLR 09/06 A3025 RMK AO2 SLP180 T00940056 10211 20089 51017
KALS 210452Z AUTO 35004KT 10SM CLR 12/06 A3024 RMK AO2 SLP174 T01170061
KALS 210352Z AUTO 30003KT 10SM CLR 12/08 A3022 RMK AO2 SLP169 T01220078
KALS 210252Z AUTO 30003KT 10SM CLR 14/07 A3019 RMK AO2 SLP155 T01440072 53023
KALS 210152Z AUTO 24007KT 10SM CLR 15/08 A3015 RMK AO2 SLP141 T01500078
KALS 210052Z AUTO 23005KT 10SM CLR 18/06 A3013 RMK AO2 SLP124 T01830056
KALS 202352Z AUTO 33006KT 10SM CLR 21/03 A3010 RMK AO2 SLP109 T02110033 10217 20133 53001
KALS 202252Z AUTO 10SM CLR 21/03 A3010 RMK AO2 SLP106 T02110033
KALS 202152Z AUTO 33007KT 10SM CLR 21/04 A3010 RMK AO2 SLP106 T02110044
KALS 202052Z AUTO 10SM CLR 19/07 A3010 RMK AO2 SLP109 T01940072 56015
KALS 201952Z AUTO 36006KT 10SM CLR 18/09 A3012 RMK AO2 SLP114 T01830089
KALS 201852Z AUTO 21003KT 10SM CLR 15/09 A3013 RMK AO2 SLP126 T01500089
KALS 201752Z AUTO VRB04KT 10SM CLR 14/09 A3016 RMK AO2 SLP137 60004 T01390094 10144 20089 58001
KALS 201741Z AUTO VRB03KT 10SM SCT021 14/09 A3016 RMK AO2 T01440094
KALS 201652Z AUTO 00000KT 10SM OVC020 13/09 A3017 RMK AO2 SLP136 T01280089
KALS 201631Z AUTO 00000KT 10SM BKN018 12/09 A3017 RMK AO2 T01220089
KALS 201552Z AUTO VRB04KT 10SM FEW013 11/09 A3017 RMK AO2 SLP140 T01110089
KALS 201452Z AUTO 00000KT 10SM FEW008 OVC095 10/08 A3016 RMK AO2 RAE06 SLP138 P0000 60004 T01000083 53006
KALS 201448Z AUTO 00000KT 10SM FEW008 OVC090 10/09 A3016 RMK AO2 RAE06 P0000
KALS 201352Z AUTO 14007KT 10SM -RA BKN060 OVC070 09/09 A3012 RMK AO2 SLP123 P0003 T00890089
KALS 201252Z AUTO 00000KT 10SM -RA OVC060 09/08 A3013 RMK AO2 SLP125 P0001 T00940083
KALS 201152Z AUTO 01005KT 10SM -RA BKN070 OVC095 09/08 A3012 RMK AO2 SLP111 P0003 60027 70028 T00940083 10128 20089 58003
KALS 201052Z AUTO 01007KT 10SM -RA OVC050 09/09 A3014 RMK AO2 SLP115 P0005 T00940089
KALS 200952Z AUTO 03009KT 7SM RA FEW009 SCT014 OVC039 09/09 A3015 RMK AO2 SLP114 P0006 T00940089
KALS 200859Z AUTO 34015KT 6SM RA BR SCT007 SCT010 OVC016 10/09 A3013 RMK AO2 P0002 T01000094
KALS 200852Z AUTO 34011G22KT 8SM -RA BKN005 BKN019 OVC050 11/10 A3013 RMK AO2 SLP099 P0007 60013 T01060100 53003
KALS 200835Z AUTO 02005KT 5SM -RA BR FEW005 SCT018 OVC050 13/13 A3011 RMK AO2 P0006 T01280128
KALS 200752Z AUTO 02005KT 8SM -RA BKN043 BKN055 OVC070 13/13 A3012 RMK AO2 SLP097 P0003 T01280128
KALS 200652Z AUTO 11003KT 8SM -RA FEW060 OVC075 12/12 A3012 RMK AO2 SLP095 P0003 T01220122 402780050
KALS 200552Z AUTO 20013G23KT 9SM -RA OVC070 13/12 A3012 RMK AO2 PK WND 18030/0517 WSHFT 0456 RAB18 SLP097 P0001 60001 T01280117 10194 20128 53014
KALS 200516Z AUTO 19022G29KT 10SM OVC085 16/08 A3009 RMK AO2 PK WND 18029/0516 WSHFT 0456 T01610078
KALS 200452Z AUTO 11008KT 10SM BKN090 OVC120 16/08 A3009 RMK AO2 RAB15E24 SLP086 P0000 T01610083
KALS 200352Z AUTO 12005KT 10SM OVC090 16/07 A3009 RMK AO2 SLP097 T01610072